sensor_id;sensor_type;location;lat;lon;timestamp;pressure;altitude;pressure_sealevel;temperature;humidity
73624;BME280;61921;53.226;-1.296;2023-04-24T00:02:07;99511.04;;;7.38;87.96
73624;BME280;61921;53.226;-1.296;2023-04-24T00:04:32;99512.97;;;7.43;86.71
73624;BME280;61921;53.226;-1.296;2023-04-24T00:06:57;99515.07;;;7.45;86.47
73624;BME280;61921;53.226;-1.296;2023-04-24T00:09:24;99518.99;;;7.39;86.57
73624;BME280;61921;53.226;-1.296;2023-04-24T00:11:49;99522.90;;;7.31;86.84
73624;BME280;61921;53.226;-1.296;2023-04-24T00:14:14;99525.01;;;7.26;86.68
73624;BME280;61921;53.226;-1.296;2023-04-24T00:16:40;99529.58;;;7.30;86.33
73624;BME280;61921;53.226;-1.296;2023-04-24T00:19:05;99531.70;;;7.30;86.51
73624;BME280;61921;53.226;-1.296;2023-04-24T00:21:31;99532.81;;;7.17;86.21
73624;BME280;61921;53.226;-1.296;2023-04-24T00:23:56;99530.85;;;7.21;86.39
73624;BME280;61921;53.226;-1.296;2023-04-24T00:26:22;99528.78;;;7.17;86.19
73624;BME280;61921;53.226;-1.296;2023-04-24T00:28:47;99526.41;;;7.20;86.45
73624;BME280;61921;53.226;-1.296;2023-04-24T00:31:13;99529.47;;;7.09;86.47
73624;BME280;61921;53.226;-1.296;2023-04-24T00:33:38;99531.34;;;6.97;86.27
73624;BME280;61921;53.226;-1.296;2023-04-24T00:36:04;99534.56;;;7.01;86.75
73624;BME280;61921;53.226;-1.296;2023-04-24T00:38:29;99536.61;;;7.04;86.57
73624;BME280;61921;53.226;-1.296;2023-04-24T00:40:55;99537.54;;;7.07;86.08
73624;BME280;61921;53.226;-1.296;2023-04-24T00:43:20;99538.20;;;7.18;85.92
73624;BME280;61921;53.226;-1.296;2023-04-24T00:45:46;99538.38;;;7.10;85.60
73624;BME280;61921;53.226;-1.296;2023-04-24T00:48:12;99540.80;;;7.02;86.10
73624;BME280;61921;53.226;-1.296;2023-04-24T00:50:38;99536.98;;;6.95;85.80
73624;BME280;61921;53.226;-1.296;2023-04-24T00:53:02;99541.67;;;6.85;85.84
73624;BME280;61921;53.226;-1.296;2023-04-24T00:55:28;99540.78;;;6.71;85.23
73624;BME280;61921;53.226;-1.296;2023-04-24T00:57:54;99540.81;;;6.68;84.13
73624;BME280;61921;53.226;-1.296;2023-04-24T01:00:19;99547.08;;;6.66;84.84
73624;BME280;61921;53.226;-1.296;2023-04-24T01:02:45;99546.01;;;6.65;84.71
73624;BME280;61921;53.226;-1.296;2023-04-24T01:05:11;99549.47;;;6.45;84.66
73624;BME280;61921;53.226;-1.296;2023-04-24T01:07:36;99550.23;;;6.39;85.02
73624;BME280;61921;53.226;-1.296;2023-04-24T01:10:02;99553.75;;;6.34;85.64
73624;BME280;61921;53.226;-1.296;2023-04-24T01:12:27;99553.73;;;6.26;85.85
73624;BME280;61921;53.226;-1.296;2023-04-24T01:14:52;99551.53;;;6.31;85.56
73624;BME280;61921;53.226;-1.296;2023-04-24T01:17:18;99550.30;;;6.28;86.08
73624;BME280;61921;53.226;-1.296;2023-04-24T01:19:43;99555.55;;;6.34;86.48
73624;BME280;61921;53.226;-1.296;2023-04-24T01:22:11;99559.42;;;6.25;86.59
73624;BME280;61921;53.226;-1.296;2023-04-24T01:24:35;99559.81;;;6.31;86.67
73624;BME280;61921;53.226;-1.296;2023-04-24T01:27:00;99558.74;;;6.22;86.92
73624;BME280;61921;53.226;-1.296;2023-04-24T01:29:26;99562.99;;;6.12;87.25
73624;BME280;61921;53.226;-1.296;2023-04-24T01:31:52;99565.30;;;6.06;87.38
73624;BME280;61921;53.226;-1.296;2023-04-24T01:34:17;99565.66;;;6.09;87.61
73624;BME280;61921;53.226;-1.296;2023-04-24T01:36:43;99561.74;;;6.12;87.81
73624;BME280;61921;53.226;-1.296;2023-04-24T01:39:08;99562.62;;;6.00;87.74
73624;BME280;61921;53.226;-1.296;2023-04-24T01:41:34;99562.81;;;5.95;87.61
73624;BME280;61921;53.226;-1.296;2023-04-24T01:43:59;99569.08;;;5.97;88.18
73624;BME280;61921;53.226;-1.296;2023-04-24T01:46:25;99575.68;;;5.88;87.95
73624;BME280;61921;53.226;-1.296;2023-04-24T01:48:51;99579.67;;;5.94;87.47
73624;BME280;61921;53.226;-1.296;2023-04-24T01:51:16;99581.08;;;5.92;87.33
73624;BME280;61921;53.226;-1.296;2023-04-24T01:53:41;99583.32;;;5.87;87.05
73624;BME280;61921;53.226;-1.296;2023-04-24T01:56:07;99585.53;;;5.86;87.25
73624;BME280;61921;53.226;-1.296;2023-04-24T01:58:32;99588.54;;;5.80;87.17
73624;BME280;61921;53.226;-1.296;2023-04-24T02:00:58;99587.13;;;5.78;87.06
73624;BME280;61921;53.226;-1.296;2023-04-24T02:03:25;99588.87;;;5.81;87.15
73624;BME280;61921;53.226;-1.296;2023-04-24T02:05:49;99590.32;;;5.79;87.35
73624;BME280;61921;53.226;-1.296;2023-04-24T02:08:15;99593.18;;;5.76;88.11
73624;BME280;61921;53.226;-1.296;2023-04-24T02:10:40;99596.98;;;5.69;88.28
73624;BME280;61921;53.226;-1.296;2023-04-24T02:13:06;99597.99;;;5.80;87.98
73624;BME280;61921;53.226;-1.296;2023-04-24T02:15:31;99605.24;;;5.84;87.69
73624;BME280;61921;53.226;-1.296;2023-04-24T02:17:57;99607.90;;;5.89;87.33
73624;BME280;61921;53.226;-1.296;2023-04-24T02:20:23;99609.43;;;5.93;86.93
73624;BME280;61921;53.226;-1.296;2023-04-24T02:22:48;99611.31;;;5.98;86.83
73624;BME280;61921;53.226;-1.296;2023-04-24T02:25:15;99611.16;;;6.09;86.86
73624;BME280;61921;53.226;-1.296;2023-04-24T02:27:39;99610.20;;;6.17;86.54
73624;BME280;61921;53.226;-1.296;2023-04-24T02:30:06;99607.81;;;6.15;86.67
73624;BME280;61921;53.226;-1.296;2023-04-24T02:32:31;99606.98;;;6.26;87.20
73624;BME280;61921;53.226;-1.296;2023-04-24T02:34:56;99602.18;;;6.28;87.55
73624;BME280;61921;53.226;-1.296;2023-04-24T02:37:22;99598.82;;;6.08;87.09
73624;BME280;61921;53.226;-1.296;2023-04-24T02:39:47;99600.84;;;6.10;86.70
73624;BME280;61921;53.226;-1.296;2023-04-24T02:42:13;99604.95;;;5.98;86.87
73624;BME280;61921;53.226;-1.296;2023-04-24T02:44:38;99616.30;;;6.00;86.89
73624;BME280;61921;53.226;-1.296;2023-04-24T02:47:04;99619.09;;;6.01;86.97
73624;BME280;61921;53.226;-1.296;2023-04-24T02:49:29;99625.72;;;6.15;86.42
73624;BME280;61921;53.226;-1.296;2023-04-24T02:51:55;99628.54;;;6.14;86.54
73624;BME280;61921;53.226;-1.296;2023-04-24T02:54:21;99625.59;;;6.21;86.42
73624;BME280;61921;53.226;-1.296;2023-04-24T02:56:46;99631.31;;;6.14;85.90
73624;BME280;61921;53.226;-1.296;2023-04-24T02:59:12;99636.19;;;6.17;85.48
73624;BME280;61921;53.226;-1.296;2023-04-24T03:01:37;99637.65;;;6.22;85.36
73624;BME280;61921;53.226;-1.296;2023-04-24T03:04:03;99642.68;;;6.22;85.11
73624;BME280;61921;53.226;-1.296;2023-04-24T03:06:28;99640.36;;;6.27;84.73
73624;BME280;61921;53.226;-1.296;2023-04-24T03:08:54;99641.00;;;6.21;85.10
73624;BME280;61921;53.226;-1.296;2023-04-24T03:11:20;99640.03;;;6.21;84.70
73624;BME280;61921;53.226;-1.296;2023-04-24T03:13:45;99640.02;;;6.12;85.20
73624;BME280;61921;53.226;-1.296;2023-04-24T03:16:11;99640.60;;;6.11;85.49
73624;BME280;61921;53.226;-1.296;2023-04-24T03:18:36;99639.69;;;5.96;85.91
73624;BME280;61921;53.226;-1.296;2023-04-24T03:21:02;99640.61;;;5.87;86.24
73624;BME280;61921;53.226;-1.296;2023-04-24T03:23:28;99641.88;;;5.84;86.28
73624;BME280;61921;53.226;-1.296;2023-04-24T03:25:53;99639.24;;;5.83;86.40
73624;BME280;61921;53.226;-1.296;2023-04-24T03:28:18;99635.88;;;5.92;86.61
73624;BME280;61921;53.226;-1.296;2023-04-24T03:30:44;99632.88;;;5.76;86.70
73624;BME280;61921;53.226;-1.296;2023-04-24T03:33:09;99638.83;;;5.77;86.87
73624;BME280;61921;53.226;-1.296;2023-04-24T03:35:35;99644.87;;;5.85;86.66
73624;BME280;61921;53.226;-1.296;2023-04-24T03:38:00;99650.73;;;5.88;86.33
73624;BME280;61921;53.226;-1.296;2023-04-24T03:40:26;99656.69;;;5.92;86.05
73624;BME280;61921;53.226;-1.296;2023-04-24T03:42:51;99656.16;;;5.96;85.89
73624;BME280;61921;53.226;-1.296;2023-04-24T03:45:17;99657.97;;;5.95;85.95
73624;BME280;61921;53.226;-1.296;2023-04-24T03:47:42;99658.82;;;6.01;85.15
73624;BME280;61921;53.226;-1.296;2023-04-24T03:50:09;99657.10;;;6.00;85.63
73624;BME280;61921;53.226;-1.296;2023-04-24T03:52:34;99657.64;;;6.05;85.63
73624;BME280;61921;53.226;-1.296;2023-04-24T03:54:59;99659.34;;;6.06;85.58
73624;BME280;61921;53.226;-1.296;2023-04-24T03:57:25;99663.04;;;6.04;85.66
73624;BME280;61921;53.226;-1.296;2023-04-24T03:59:51;99662.45;;;6.15;85.04
73624;BME280;61921;53.226;-1.296;2023-04-24T04:02:16;99665.17;;;6.13;85.31
73624;BME280;61921;53.226;-1.296;2023-04-24T04:04:42;99667.60;;;6.14;85.38
73624;BME280;61921;53.226;-1.296;2023-04-24T04:07:07;99668.84;;;6.17;84.95
73624;BME280;61921;53.226;-1.296;2023-04-24T04:09:33;99668.25;;;6.25;85.09
73624;BME280;61921;53.226;-1.296;2023-04-24T04:11:58;99668.55;;;6.04;84.67
73624;BME280;61921;53.226;-1.296;2023-04-24T04:14:24;99669.20;;;5.95;85.28
73624;BME280;61921;53.226;-1.296;2023-04-24T04:16:49;99669.37;;;5.94;85.66
73624;BME280;61921;53.226;-1.296;2023-04-24T04:19:15;99674.90;;;5.93;85.67
73624;BME280;61921;53.226;-1.296;2023-04-24T04:21:40;99680.07;;;5.96;85.47
73624;BME280;61921;53.226;-1.296;2023-04-24T04:24:06;99685.39;;;5.97;85.25
73624;BME280;61921;53.226;-1.296;2023-04-24T04:26:31;99687.54;;;6.05;85.14
73624;BME280;61921;53.226;-1.296;2023-04-24T04:28:57;99687.13;;;6.02;85.24
73624;BME280;61921;53.226;-1.296;2023-04-24T04:31:22;99687.16;;;6.05;85.25
73624;BME280;61921;53.226;-1.296;2023-04-24T04:33:48;99691.81;;;5.97;85.38
73624;BME280;61921;53.226;-1.296;2023-04-24T04:36:14;99692.50;;;5.93;85.77
73624;BME280;61921;53.226;-1.296;2023-04-24T04:38:39;99689.99;;;5.91;85.92
73624;BME280;61921;53.226;-1.296;2023-04-24T04:41:05;99693.06;;;5.97;85.93
73624;BME280;61921;53.226;-1.296;2023-04-24T04:43:30;99701.14;;;5.96;85.85
73624;BME280;61921;53.226;-1.296;2023-04-24T04:45:57;99705.79;;;5.95;85.06
73624;BME280;61921;53.226;-1.296;2023-04-24T04:48:22;99706.76;;;5.96;85.54
73624;BME280;61921;53.226;-1.296;2023-04-24T04:50:47;99714.90;;;5.93;85.93
73624;BME280;61921;53.226;-1.296;2023-04-24T04:53:13;99719.12;;;5.89;85.49
73624;BME280;61921;53.226;-1.296;2023-04-24T04:55:38;99720.64;;;5.96;85.78
73624;BME280;61921;53.226;-1.296;2023-04-24T04:58:04;99720.47;;;6.06;86.03
73624;BME280;61921;53.226;-1.296;2023-04-24T05:00:29;99721.17;;;6.07;85.68
73624;BME280;61921;53.226;-1.296;2023-04-24T05:02:55;99727.31;;;5.98;85.44
73624;BME280;61921;53.226;-1.296;2023-04-24T05:05:20;99728.30;;;5.88;85.87
73624;BME280;61921;53.226;-1.296;2023-04-24T05:07:46;99726.67;;;5.83;86.22
73624;BME280;61921;53.226;-1.296;2023-04-24T05:10:12;99730.75;;;5.85;86.87
73624;BME280;61921;53.226;-1.296;2023-04-24T05:12:37;99737.74;;;5.79;86.71
73624;BME280;61921;53.226;-1.296;2023-04-24T05:15:03;99740.86;;;5.86;86.01
73624;BME280;61921;53.226;-1.296;2023-04-24T05:17:28;99744.57;;;5.88;86.10
73624;BME280;61921;53.226;-1.296;2023-04-24T05:19:54;99743.58;;;5.91;85.83
73624;BME280;61921;53.226;-1.296;2023-04-24T05:22:20;99744.14;;;5.96;86.02
73624;BME280;61921;53.226;-1.296;2023-04-24T05:24:45;99747.00;;;6.04;85.68
73624;BME280;61921;53.226;-1.296;2023-04-24T05:27:11;99744.89;;;6.11;84.86
73624;BME280;61921;53.226;-1.296;2023-04-24T05:29:36;99748.13;;;6.09;84.86
73624;BME280;61921;53.226;-1.296;2023-04-24T05:32:02;99755.05;;;6.22;84.68
73624;BME280;61921;53.226;-1.296;2023-04-24T05:34:27;99757.24;;;6.17;84.71
73624;BME280;61921;53.226;-1.296;2023-04-24T05:36:53;99757.13;;;6.26;84.56
73624;BME280;61921;53.226;-1.296;2023-04-24T05:39:19;99755.97;;;6.32;83.97
73624;BME280;61921;53.226;-1.296;2023-04-24T05:41:44;99752.84;;;6.28;83.81
73624;BME280;61921;53.226;-1.296;2023-04-24T05:44:10;99752.53;;;6.39;84.14
73624;BME280;61921;53.226;-1.296;2023-04-24T05:46:35;99754.91;;;6.49;83.97
73624;BME280;61921;53.226;-1.296;2023-04-24T05:49:02;99758.21;;;6.45;83.47
73624;BME280;61921;53.226;-1.296;2023-04-24T05:51:26;99764.48;;;6.67;83.32
73624;BME280;61921;53.226;-1.296;2023-04-24T05:53:52;99768.99;;;6.64;82.59
73624;BME280;61921;53.226;-1.296;2023-04-24T05:56:18;99772.15;;;6.69;81.70
73624;BME280;61921;53.226;-1.296;2023-04-24T05:58:43;99772.16;;;6.68;81.96
73624;BME280;61921;53.226;-1.296;2023-04-24T06:01:09;99772.63;;;6.69;82.57
73624;BME280;61921;53.226;-1.296;2023-04-24T06:03:34;99772.56;;;6.56;82.47
73624;BME280;61921;53.226;-1.296;2023-04-24T06:06:00;99771.59;;;6.49;82.77
73624;BME280;61921;53.226;-1.296;2023-04-24T06:08:25;99774.21;;;6.48;82.29
73624;BME280;61921;53.226;-1.296;2023-04-24T06:10:51;99781.59;;;6.61;82.04
73624;BME280;61921;53.226;-1.296;2023-04-24T06:13:16;99780.53;;;6.56;82.08
73624;BME280;61921;53.226;-1.296;2023-04-24T06:15:43;99782.25;;;6.54;82.01
73624;BME280;61921;53.226;-1.296;2023-04-24T06:18:07;99785.67;;;6.57;82.13
73624;BME280;61921;53.226;-1.296;2023-04-24T06:20:33;99783.97;;;6.60;81.88
73624;BME280;61921;53.226;-1.296;2023-04-24T06:22:58;99780.50;;;6.61;82.66
73624;BME280;61921;53.226;-1.296;2023-04-24T06:25:25;99778.60;;;6.86;82.94
73624;BME280;61921;53.226;-1.296;2023-04-24T06:27:49;99782.35;;;6.84;81.86
73624;BME280;61921;53.226;-1.296;2023-04-24T06:30:15;99790.44;;;6.79;81.89
73624;BME280;61921;53.226;-1.296;2023-04-24T06:32:40;99785.91;;;6.72;81.61
73624;BME280;61921;53.226;-1.296;2023-04-24T06:35:07;99783.67;;;6.70;81.57
73624;BME280;61921;53.226;-1.296;2023-04-24T06:37:31;99790.50;;;6.79;81.56
73624;BME280;61921;53.226;-1.296;2023-04-24T06:39:57;99789.13;;;6.88;80.22
73624;BME280;61921;53.226;-1.296;2023-04-24T06:42:22;99788.04;;;6.90;80.65
73624;BME280;61921;53.226;-1.296;2023-04-24T06:44:48;99791.57;;;7.08;80.72
73624;BME280;61921;53.226;-1.296;2023-04-24T06:47:14;99788.21;;;6.89;79.74
73624;BME280;61921;53.226;-1.296;2023-04-24T06:49:39;99792.29;;;6.79;79.76
73624;BME280;61921;53.226;-1.296;2023-04-24T06:52:05;99796.00;;;6.81;79.64
73624;BME280;61921;53.226;-1.296;2023-04-24T06:54:31;99798.47;;;6.81;79.71
73624;BME280;61921;53.226;-1.296;2023-04-24T06:56:56;99801.35;;;6.86;79.92
73624;BME280;61921;53.226;-1.296;2023-04-24T06:59:21;99804.53;;;6.89;78.94
73624;BME280;61921;53.226;-1.296;2023-04-24T07:01:47;99806.86;;;7.05;79.08
73624;BME280;61921;53.226;-1.296;2023-04-24T07:04:14;99806.82;;;7.05;78.62
73624;BME280;61921;53.226;-1.296;2023-04-24T07:06:39;99811.68;;;7.06;78.58
73624;BME280;61921;53.226;-1.296;2023-04-24T07:09:04;99810.76;;;7.09;79.04
73624;BME280;61921;53.226;-1.296;2023-04-24T07:11:29;99819.84;;;7.19;77.60
73624;BME280;61921;53.226;-1.296;2023-04-24T07:13:55;99817.90;;;7.07;77.78
73624;BME280;61921;53.226;-1.296;2023-04-24T07:16:20;99819.32;;;7.07;77.35
73624;BME280;61921;53.226;-1.296;2023-04-24T07:18:46;99827.63;;;7.15;78.22
73624;BME280;61921;53.226;-1.296;2023-04-24T07:21:12;99828.84;;;7.41;78.62
73624;BME280;61921;53.226;-1.296;2023-04-24T07:23:37;99828.83;;;7.38;76.64
73624;BME280;61921;53.226;-1.296;2023-04-24T07:26:03;99828.85;;;7.14;77.17
73624;BME280;61921;53.226;-1.296;2023-04-24T07:28:28;99834.99;;;7.28;76.92
73624;BME280;61921;53.226;-1.296;2023-04-24T07:30:54;99839.05;;;7.46;76.78
73624;BME280;61921;53.226;-1.296;2023-04-24T07:33:19;99843.82;;;7.59;75.97
73624;BME280;61921;53.226;-1.296;2023-04-24T07:35:45;99842.40;;;7.53;75.69
73624;BME280;61921;53.226;-1.296;2023-04-24T07:38:10;99842.99;;;7.66;75.61
73624;BME280;61921;53.226;-1.296;2023-04-24T07:40:36;99847.79;;;7.88;74.81
73624;BME280;61921;53.226;-1.296;2023-04-24T07:43:01;99847.30;;;7.72;74.79
73624;BME280;61921;53.226;-1.296;2023-04-24T07:45:27;99851.17;;;7.72;75.70
73624;BME280;61921;53.226;-1.296;2023-04-24T07:47:52;99848.69;;;7.93;76.31
73624;BME280;61921;53.226;-1.296;2023-04-24T07:50:18;99850.06;;;8.19;75.81
73624;BME280;61921;53.226;-1.296;2023-04-24T07:52:43;99851.31;;;8.29;74.88
73624;BME280;61921;53.226;-1.296;2023-04-24T07:55:09;99853.38;;;8.04;74.68
73624;BME280;61921;53.226;-1.296;2023-04-24T07:57:35;99853.05;;;8.10;75.46
73624;BME280;61921;53.226;-1.296;2023-04-24T08:00:00;99854.62;;;7.99;73.81
73624;BME280;61921;53.226;-1.296;2023-04-24T08:02:25;99860.38;;;8.18;72.96
73624;BME280;61921;53.226;-1.296;2023-04-24T08:04:51;99859.09;;;8.37;72.60
73624;BME280;61921;53.226;-1.296;2023-04-24T08:07:17;99857.98;;;8.58;71.28
73624;BME280;61921;53.226;-1.296;2023-04-24T08:09:42;99858.84;;;8.58;70.19
73624;BME280;61921;53.226;-1.296;2023-04-24T08:12:07;99860.53;;;8.71;70.02
73624;BME280;61921;53.226;-1.296;2023-04-24T08:14:33;99855.68;;;9.03;69.16
73624;BME280;61921;53.226;-1.296;2023-04-24T08:16:59;99857.42;;;9.00;68.85
73624;BME280;61921;53.226;-1.296;2023-04-24T08:19:24;99855.66;;;8.79;67.09
73624;BME280;61921;53.226;-1.296;2023-04-24T08:21:49;99853.51;;;9.41;67.78
73624;BME280;61921;53.226;-1.296;2023-04-24T08:24:15;99864.17;;;9.55;68.11
73624;BME280;61921;53.226;-1.296;2023-04-24T08:26:40;99867.66;;;10.02;66.55
73624;BME280;61921;53.226;-1.296;2023-04-24T08:29:06;99866.72;;;9.80;66.19
73624;BME280;61921;53.226;-1.296;2023-04-24T08:31:31;99864.99;;;10.03;67.92
73624;BME280;61921;53.226;-1.296;2023-04-24T08:33:57;99871.67;;;9.31;67.68
73624;BME280;61921;53.226;-1.296;2023-04-24T08:36:22;99865.53;;;9.06;69.50
73624;BME280;61921;53.226;-1.296;2023-04-24T08:38:48;99866.30;;;8.70;69.41
73624;BME280;61921;53.226;-1.296;2023-04-24T08:41:14;99872.43;;;8.61;71.50
73624;BME280;61921;53.226;-1.296;2023-04-24T08:43:39;99869.37;;;8.70;71.09
73624;BME280;61921;53.226;-1.296;2023-04-24T08:46:04;99867.33;;;8.88;69.40
73624;BME280;61921;53.226;-1.296;2023-04-24T08:48:30;99870.24;;;9.31;67.83
73624;BME280;61921;53.226;-1.296;2023-04-24T08:50:55;99868.49;;;9.85;65.57
73624;BME280;61921;53.226;-1.296;2023-04-24T08:53:20;99872.72;;;9.32;65.53
73624;BME280;61921;53.226;-1.296;2023-04-24T08:55:47;99877.20;;;8.87;66.50
73624;BME280;61921;53.226;-1.296;2023-04-24T08:58:11;99872.34;;;9.56;67.21
73624;BME280;61921;53.226;-1.296;2023-04-24T09:00:39;99871.40;;;10.06;66.13
73624;BME280;61921;53.226;-1.296;2023-04-24T09:03:03;99872.61;;;9.94;66.11
73624;BME280;61921;53.226;-1.296;2023-04-24T09:05:27;99878.01;;;9.52;65.52
73624;BME280;61921;53.226;-1.296;2023-04-24T09:07:54;99884.55;;;9.11;66.80
73624;BME280;61921;53.226;-1.296;2023-04-24T09:10:17;99885.74;;;9.28;67.81
73624;BME280;61921;53.226;-1.296;2023-04-24T09:12:44;99885.61;;;9.50;66.77
73624;BME280;61921;53.226;-1.296;2023-04-24T09:15:10;99890.98;;;9.40;67.76
73624;BME280;61921;53.226;-1.296;2023-04-24T09:17:34;99890.90;;;9.77;66.23
73624;BME280;61921;53.226;-1.296;2023-04-24T09:20:00;99891.00;;;9.85;64.16
73624;BME280;61921;53.226;-1.296;2023-04-24T09:22:26;99890.14;;;9.66;66.23
73624;BME280;61921;53.226;-1.296;2023-04-24T09:24:59;99889.38;;;9.94;66.24
73624;BME280;61921;53.226;-1.296;2023-04-24T09:27:17;99891.33;;;10.28;62.81
73624;BME280;61921;53.226;-1.296;2023-04-24T09:32:18;99895.89;;;10.54;62.50
73624;BME280;61921;53.226;-1.296;2023-04-24T09:34:32;99898.75;;;10.81;62.64
73624;BME280;61921;53.226;-1.296;2023-04-24T09:36:57;99901.09;;;10.73;63.48
73624;BME280;61921;53.226;-1.296;2023-04-24T09:39:23;99899.73;;;9.71;64.34
73624;BME280;61921;53.226;-1.296;2023-04-24T09:41:50;99903.32;;;9.64;64.75
73624;BME280;61921;53.226;-1.296;2023-04-24T09:44:16;99908.75;;;9.36;65.67
73624;BME280;61921;53.226;-1.296;2023-04-24T09:46:40;99912.19;;;9.25;66.61
73624;BME280;61921;53.226;-1.296;2023-04-24T09:49:09;99918.59;;;9.08;66.85
73624;BME280;61921;53.226;-1.296;2023-04-24T09:51:34;99923.34;;;9.03;67.63
73624;BME280;61921;53.226;-1.296;2023-04-24T09:53:55;99920.57;;;9.36;66.85
73624;BME280;61921;53.226;-1.296;2023-04-24T09:56:21;99914.94;;;9.83;64.43
73624;BME280;61921;53.226;-1.296;2023-04-24T09:58:46;99915.61;;;10.05;63.32
73624;BME280;61921;53.226;-1.296;2023-04-24T10:01:12;99916.00;;;9.92;63.63
73624;BME280;61921;53.226;-1.296;2023-04-24T10:03:37;99917.98;;;9.84;64.59
73624;BME280;61921;53.226;-1.296;2023-04-24T10:06:04;99920.29;;;9.71;65.35
73624;BME280;61921;53.226;-1.296;2023-04-24T10:08:34;99922.37;;;9.69;66.53
73624;BME280;61921;53.226;-1.296;2023-04-24T10:10:54;99924.21;;;9.29;66.78
73624;BME280;61921;53.226;-1.296;2023-04-24T10:13:20;99927.55;;;9.44;66.61
73624;BME280;61921;53.226;-1.296;2023-04-24T10:15:46;99922.96;;;9.96;65.79
73624;BME280;61921;53.226;-1.296;2023-04-24T10:18:11;99924.16;;;10.31;64.26
73624;BME280;61921;53.226;-1.296;2023-04-24T10:20:37;99927.58;;;10.28;63.35
73624;BME280;61921;53.226;-1.296;2023-04-24T10:23:04;99930.99;;;10.10;60.98
73624;BME280;61921;53.226;-1.296;2023-04-24T10:25:27;99931.97;;;10.34;62.69
73624;BME280;61921;53.226;-1.296;2023-04-24T10:27:53;99933.94;;;10.72;61.66
73624;BME280;61921;53.226;-1.296;2023-04-24T10:30:18;99937.66;;;10.19;62.91
73624;BME280;61921;53.226;-1.296;2023-04-24T10:32:42;99936.32;;;10.11;62.26
73624;BME280;61921;53.226;-1.296;2023-04-24T10:35:09;99937.87;;;10.38;60.74
73624;BME280;61921;53.226;-1.296;2023-04-24T10:37:36;99935.09;;;10.88;60.26
73624;BME280;61921;53.226;-1.296;2023-04-24T10:39:58;99932.90;;;11.35;58.47
73624;BME280;61921;53.226;-1.296;2023-04-24T10:42:24;99933.92;;;11.38;56.69
73624;BME280;61921;53.226;-1.296;2023-04-24T10:44:50;99929.47;;;11.39;57.18
73624;BME280;61921;53.226;-1.296;2023-04-24T10:47:15;99927.63;;;11.34;56.76
73624;BME280;61921;53.226;-1.296;2023-04-24T10:49:40;99929.49;;;11.33;59.06
73624;BME280;61921;53.226;-1.296;2023-04-24T10:52:06;99931.98;;;11.42;58.34
73624;BME280;61921;53.226;-1.296;2023-04-24T10:54:35;99938.54;;;10.77;57.42
73624;BME280;61921;53.226;-1.296;2023-04-24T10:59:26;99942.30;;;10.23;59.67
73624;BME280;61921;53.226;-1.296;2023-04-24T11:01:53;99942.41;;;10.32;60.38
73624;BME280;61921;53.226;-1.296;2023-04-24T11:04:12;99933.94;;;10.99;58.16
73624;BME280;61921;53.226;-1.296;2023-04-24T11:06:37;99937.99;;;11.68;56.41
73624;BME280;61921;53.226;-1.296;2023-04-24T11:09:04;99933.09;;;12.33;55.01
73624;BME280;61921;53.226;-1.296;2023-04-24T11:11:29;99936.58;;;11.82;55.21
73624;BME280;61921;53.226;-1.296;2023-04-24T11:14:04;99939.52;;;11.01;59.13
73624;BME280;61921;53.226;-1.296;2023-04-24T11:16:26;99947.04;;;10.45;61.56
73624;BME280;61921;53.226;-1.296;2023-04-24T11:18:44;99947.91;;;10.44;61.24
73624;BME280;61921;53.226;-1.296;2023-04-24T11:21:11;99945.13;;;10.80;61.56
73624;BME280;61921;53.226;-1.296;2023-04-24T11:23:36;99952.65;;;10.52;61.12
73624;BME280;61921;53.226;-1.296;2023-04-24T11:26:10;99954.82;;;10.45;60.03
73624;BME280;61921;53.226;-1.296;2023-04-24T11:28:28;99956.02;;;10.29;60.64
73624;BME280;61921;53.226;-1.296;2023-04-24T11:30:52;99959.74;;;10.35;59.29
73624;BME280;61921;53.226;-1.296;2023-04-24T11:33:20;99953.94;;;10.11;60.18
73624;BME280;61921;53.226;-1.296;2023-04-24T11:35:43;99961.87;;;10.42;61.53
73624;BME280;61921;53.226;-1.296;2023-04-24T11:38:10;99962.48;;;10.47;57.70
73624;BME280;61921;53.226;-1.296;2023-04-24T11:40:33;99959.69;;;10.31;57.07
73624;BME280;61921;53.226;-1.296;2023-04-24T11:43:00;99964.16;;;10.53;57.22
73624;BME280;61921;53.226;-1.296;2023-04-24T11:45:25;99969.13;;;10.65;58.40
73624;BME280;61921;53.226;-1.296;2023-04-24T11:47:49;99968.00;;;11.14;58.89
73624;BME280;61921;53.226;-1.296;2023-04-24T11:50:16;99974.57;;;10.72;58.28
73624;BME280;61921;53.226;-1.296;2023-04-24T11:52:42;99976.12;;;11.08;58.82
73624;BME280;61921;53.226;-1.296;2023-04-24T11:55:08;99978.19;;;11.33;58.71
73624;BME280;61921;53.226;-1.296;2023-04-24T11:57:31;99981.67;;;11.30;57.81
73624;BME280;61921;53.226;-1.296;2023-04-24T11:59:56;99985.84;;;11.90;55.91
73624;BME280;61921;53.226;-1.296;2023-04-24T12:02:22;99985.82;;;12.00;56.13
73624;BME280;61921;53.226;-1.296;2023-04-24T12:04:47;99985.71;;;11.38;56.28
73624;BME280;61921;53.226;-1.296;2023-04-24T12:07:12;99985.88;;;10.94;56.04
73624;BME280;61921;53.226;-1.296;2023-04-24T12:09:42;99987.67;;;10.83;57.29
73624;BME280;61921;53.226;-1.296;2023-04-24T12:12:03;99992.26;;;10.92;58.37
73624;BME280;61921;53.226;-1.296;2023-04-24T12:14:29;99999.36;;;10.79;58.87
73624;BME280;61921;53.226;-1.296;2023-04-24T12:16:53;100004.77;;;10.48;57.22
73624;BME280;61921;53.226;-1.296;2023-04-24T12:19:21;100009.22;;;10.34;58.78
73624;BME280;61921;53.226;-1.296;2023-04-24T12:21:44;100016.61;;;10.58;60.11
73624;BME280;61921;53.226;-1.296;2023-04-24T12:24:09;100024.88;;;10.40;61.37
73624;BME280;61921;53.226;-1.296;2023-04-24T12:26:35;100029.91;;;10.17;61.64
73624;BME280;61921;53.226;-1.296;2023-04-24T12:29:03;100033.12;;;10.22;62.02
73624;BME280;61921;53.226;-1.296;2023-04-24T12:31:26;100036.33;;;10.12;63.13
73624;BME280;61921;53.226;-1.296;2023-04-24T12:33:51;100033.90;;;9.90;61.56
73624;BME280;61921;53.226;-1.296;2023-04-24T12:36:16;100031.39;;;9.96;59.17
73624;BME280;61921;53.226;-1.296;2023-04-24T12:38:44;100032.55;;;10.14;58.76
73624;BME280;61921;53.226;-1.296;2023-04-24T12:41:08;100031.95;;;9.87;57.99
73624;BME280;61921;53.226;-1.296;2023-04-24T12:43:33;100036.40;;;10.27;57.02
73624;BME280;61921;53.226;-1.296;2023-04-24T12:45:58;100033.19;;;10.49;56.42
73624;BME280;61921;53.226;-1.296;2023-04-24T12:48:24;100034.19;;;10.71;56.58
73624;BME280;61921;53.226;-1.296;2023-04-24T12:50:49;100032.69;;;10.65;56.58
73624;BME280;61921;53.226;-1.296;2023-04-24T12:53:15;100029.82;;;11.11;55.86